sensor_id;sensor_type;location;lat;lon;timestamp;pressure;altitude;pressure_sealevel;temperature;humidity
12360;BME280;6244;51.460;7.090;2024-01-06T00:00:37;99231.25;;;5.57;100.00
12360;BME280;6244;51.460;7.090;2024-01-06T00:05:34;99226.47;;;5.49;100.00
12360;BME280;6244;51.460;7.090;2024-01-06T00:10:30;99233.81;;;5.58;100.00
12360;BME280;6244;51.460;7.090;2024-01-06T00:15:28;99238.13;;;5.58;100.00
12360;BME280;6244;51.460;7.090;2024-01-06T00:20:25;99236.47;;;5.57;100.00
12360;BME280;6244;51.460;7.090;2024-01-06T00:25:21;99234.03;;;5.54;100.00
12360;BME280;6244;51.460;7.090;2024-01-06T00:30:18;99247.72;;;5.57;100.00
12360;BME280;6244;51.460;7.090;2024-01-06T00:35:16;99258.38;;;5.53;100.00
12360;BME280;6244;51.460;7.090;2024-01-06T00:40:13;99259.97;;;5.55;100.00
12360;BME280;6244;51.460;7.090;2024-01-06T00:45:09;99261.50;;;5.59;100.00
12360;BME280;6244;51.460;7.090;2024-01-06T00:50:07;99264.25;;;5.56;100.00
12360;BME280;6244;51.460;7.090;2024-01-06T00:55:06;99277.25;;;5.56;100.00
12360;BME280;6244;51.460;7.090;2024-01-06T01:00:04;99274.66;;;5.56;100.00
12360;BME280;6244;51.460;7.090;2024-01-06T01:05:01;99272.03;;;5.56;100.00
12360;BME280;6244;51.460;7.090;2024-01-06T01:15:20;99276.75;;;5.50;100.00
12360;BME280;6244;51.460;7.090;2024-01-06T01:20:20;99266.34;;;5.32;100.00
12360;BME280;6244;51.460;7.090;2024-01-06T01:36:17;99292.75;;;5.42;100.00
12360;BME280;6244;51.460;7.090;2024-01-06T01:41:19;99289.75;;;5.32;100.00
12360;BME280;6244;51.460;7.090;2024-01-06T01:46:19;99297.13;;;5.24;100.00
12360;BME280;6244;51.460;7.090;2024-01-06T01:51:48;99301.41;;;5.25;100.00
12360;BME280;6244;51.460;7.090;2024-01-06T01:57:13;99302.19;;;5.27;100.00
12360;BME280;6244;51.460;7.090;2024-01-06T02:02:23;99304.03;;;5.25;100.00
12360;BME280;6244;51.460;7.090;2024-01-06T02:13:45;99327.72;;;5.37;100.00
12360;BME280;6244;51.460;7.090;2024-01-06T02:19:12;99324.97;;;5.40;100.00
12360;BME280;6244;51.460;7.090;2024-01-06T02:24:46;99325.75;;;5.24;100.00
12360;BME280;6244;51.460;7.090;2024-01-06T02:29:43;99334.47;;;5.23;100.00
12360;BME280;6244;51.460;7.090;2024-01-06T02:34:45;99335.31;;;5.24;100.00
12360;BME280;6244;51.460;7.090;2024-01-06T02:39:59;99344.03;;;5.23;100.00
12360;BME280;6244;51.460;7.090;2024-01-06T02:44:56;99361.22;;;5.25;100.00
12360;BME280;6244;51.460;7.090;2024-01-06T02:49:52;99355.78;;;5.30;100.00
12360;BME280;6244;51.460;7.090;2024-01-06T02:54:49;99353.34;;;5.27;100.00
12360;BME280;6244;51.460;7.090;2024-01-06T02:59:47;99367.75;;;5.34;100.00
12360;BME280;6244;51.460;7.090;2024-01-06T03:04:45;99375.84;;;5.28;100.00
12360;BME280;6244;51.460;7.090;2024-01-06T03:09:41;99386.38;;;5.42;100.00
12360;BME280;6244;51.460;7.090;2024-01-06T03:14:38;99385.00;;;5.52;100.00
12360;BME280;6244;51.460;7.090;2024-01-06T03:41:59;99401.84;;;5.28;100.00
12360;BME280;6244;51.460;7.090;2024-01-06T03:47:11;99423.56;;;5.27;100.00
12360;BME280;6244;51.460;7.090;2024-01-06T03:52:27;99428.78;;;5.27;100.00
12360;BME280;6244;51.460;7.090;2024-01-06T04:03:25;99449.97;;;5.37;100.00
12360;BME280;6244;51.460;7.090;2024-01-06T04:08:42;99458.06;;;5.30;100.00
12360;BME280;6244;51.460;7.090;2024-01-06T04:19:22;99470.78;;;5.00;100.00
12360;BME280;6244;51.460;7.090;2024-01-06T04:24:25;99453.75;;;5.12;100.00
12360;BME280;6244;51.460;7.090;2024-01-06T04:35:35;99460.72;;;5.12;100.00
12360;BME280;6244;51.460;7.090;2024-01-06T04:40:33;99452.38;;;5.05;100.00
12360;BME280;6244;51.460;7.090;2024-01-06T04:45:30;99473.56;;;5.15;100.00
12360;BME280;6244;51.460;7.090;2024-01-06T04:50:34;99483.41;;;5.08;100.00
12360;BME280;6244;51.460;7.090;2024-01-06T04:55:30;99485.41;;;5.03;100.00
12360;BME280;6244;51.460;7.090;2024-01-06T05:00:27;99486.03;;;4.89;100.00
12360;BME280;6244;51.460;7.090;2024-01-06T05:05:23;99487.72;;;4.90;100.00
12360;BME280;6244;51.460;7.090;2024-01-06T05:10:21;99489.41;;;4.91;100.00
12360;BME280;6244;51.460;7.090;2024-01-06T05:15:23;99501.72;;;4.88;100.00
12360;BME280;6244;51.460;7.090;2024-01-06T05:20:31;99492.09;;;4.90;100.00
12360;BME280;6244;51.460;7.090;2024-01-06T05:31:20;99512.03;;;4.89;100.00
12360;BME280;6244;51.460;7.090;2024-01-06T05:53:50;99538.81;;;4.72;100.00
12360;BME280;6244;51.460;7.090;2024-01-06T05:58:47;99537.53;;;4.81;100.00
12360;BME280;6244;51.460;7.090;2024-01-06T06:03:43;99553.53;;;4.91;100.00
12360;BME280;6244;51.460;7.090;2024-01-06T06:08:41;99542.78;;;4.80;100.00
12360;BME280;6244;51.460;7.090;2024-01-06T06:13:40;99548.34;;;4.72;100.00
12360;BME280;6244;51.460;7.090;2024-01-06T06:18:37;99556.63;;;4.61;100.00
12360;BME280;6244;51.460;7.090;2024-01-06T06:23:33;99572.09;;;4.44;100.00
12360;BME280;6244;51.460;7.090;2024-01-06T06:28:30;99577.25;;;4.64;100.00
12360;BME280;6244;51.460;7.090;2024-01-06T06:33:28;99585.66;;;4.90;100.00
12360;BME280;6244;51.460;7.090;2024-01-06T06:38:25;99611.72;;;4.88;100.00
12360;BME280;6244;51.460;7.090;2024-01-06T06:43:21;99614.84;;;4.76;100.00
12360;BME280;6244;51.460;7.090;2024-01-06T06:48:18;99621.03;;;4.74;100.00
12360;BME280;6244;51.460;7.090;2024-01-06T06:53:16;99627.09;;;4.74;100.00
12360;BME280;6244;51.460;7.090;2024-01-06T06:58:12;99634.31;;;4.47;100.00
12360;BME280;6244;51.460;7.090;2024-01-06T07:03:09;99649.22;;;4.42;100.00
12360;BME280;6244;51.460;7.090;2024-01-06T07:08:06;99660.09;;;4.52;100.00
12360;BME280;6244;51.460;7.090;2024-01-06T07:13:04;99667.03;;;4.51;100.00
12360;BME280;6244;51.460;7.090;2024-01-06T07:18:00;99678.28;;;4.52;100.00
12360;BME280;6244;51.460;7.090;2024-01-06T07:22:57;99686.47;;;4.63;100.00
12360;BME280;6244;51.460;7.090;2024-01-06T07:27:54;99682.34;;;4.78;100.00
12360;BME280;6244;51.460;7.090;2024-01-06T07:32:52;99679.13;;;4.72;100.00
12360;BME280;6244;51.460;7.090;2024-01-06T07:37:48;99701.13;;;4.64;100.00
12360;BME280;6244;51.460;7.090;2024-01-06T07:42:46;99704.13;;;4.55;100.00
12360;BME280;6244;51.460;7.090;2024-01-06T07:47:45;99694.56;;;4.55;100.00
12360;BME280;6244;51.460;7.090;2024-01-06T07:53:21;99700.53;;;4.57;100.00
12360;BME280;6244;51.460;7.090;2024-01-06T07:58:36;99722.50;;;4.70;100.00
12360;BME280;6244;51.460;7.090;2024-01-06T08:03:44;99736.59;;;4.65;100.00
12360;BME280;6244;51.460;7.090;2024-01-06T08:19:59;99763.50;;;4.64;100.00
12360;BME280;6244;51.460;7.090;2024-01-06T08:25:00;99775.28;;;4.51;100.00
12360;BME280;6244;51.460;7.090;2024-01-06T08:29:58;99779.22;;;4.39;100.00
12360;BME280;6244;51.460;7.090;2024-01-06T08:34:54;99800.13;;;4.36;100.00
12360;BME280;6244;51.460;7.090;2024-01-06T08:39:52;99802.34;;;4.45;100.00
12360;BME280;6244;51.460;7.090;2024-01-06T08:44:49;99805.78;;;4.46;100.00
12360;BME280;6244;51.460;7.090;2024-01-06T08:49:46;99816.00;;;4.28;100.00
12360;BME280;6244;51.460;7.090;2024-01-06T08:54:42;99826.31;;;4.30;100.00
12360;BME280;6244;51.460;7.090;2024-01-06T08:59:41;99843.47;;;4.34;100.00
12360;BME280;6244;51.460;7.090;2024-01-06T09:04:37;99845.19;;;4.35;100.00
12360;BME280;6244;51.460;7.090;2024-01-06T09:09:34;99854.00;;;4.53;100.00
12360;BME280;6244;51.460;7.090;2024-01-06T09:14:30;99859.22;;;4.53;100.00
12360;BME280;6244;51.460;7.090;2024-01-06T09:19:31;99858.44;;;4.51;100.00
12360;BME280;6244;51.460;7.090;2024-01-06T09:24:29;99875.88;;;4.47;100.00
12360;BME280;6244;51.460;7.090;2024-01-06T09:29:26;99875.06;;;4.47;100.00
12360;BME280;6244;51.460;7.090;2024-01-06T09:34:23;99872.78;;;4.37;100.00
12360;BME280;6244;51.460;7.090;2024-01-06T09:39:21;99890.34;;;4.31;100.00
12360;BME280;6244;51.460;7.090;2024-01-06T09:44:17;99897.63;;;4.45;100.00
12360;BME280;6244;51.460;7.090;2024-01-06T09:49:14;99901.06;;;4.45;100.00
12360;BME280;6244;51.460;7.090;2024-01-06T09:54:12;99909.66;;;4.47;100.00
12360;BME280;6244;51.460;7.090;2024-01-06T09:59:10;99918.75;;;4.35;100.00
12360;BME280;6244;51.460;7.090;2024-01-06T10:04:06;99931.00;;;4.32;100.00
12360;BME280;6244;51.460;7.090;2024-01-06T10:09:03;99934.28;;;4.13;100.00
12360;BME280;6244;51.460;7.090;2024-01-06T10:14:01;99941.28;;;4.11;100.00
12360;BME280;6244;51.460;7.090;2024-01-06T10:18:59;99948.03;;;4.16;100.00
12360;BME280;6244;51.460;7.090;2024-01-06T10:23:56;99955.91;;;4.14;100.00
12360;BME280;6244;51.460;7.090;2024-01-06T10:28:53;99955.13;;;4.35;100.00
12360;BME280;6244;51.460;7.090;2024-01-06T10:33:49;99955.00;;;4.15;100.00
12360;BME280;6244;51.460;7.090;2024-01-06T10:38:48;99967.25;;;4.11;100.00
12360;BME280;6244;51.460;7.090;2024-01-06T10:43:46;99966.66;;;4.03;100.00
12360;BME280;6244;51.460;7.090;2024-01-06T10:48:44;99967.44;;;4.05;100.00
12360;BME280;6244;51.460;7.090;2024-01-06T10:53:42;99965.88;;;4.01;100.00
12360;BME280;6244;51.460;7.090;2024-01-06T10:58:45;99971.13;;;4.00;100.00
12360;BME280;6244;51.460;7.090;2024-01-06T11:03:43;99973.00;;;3.95;100.00
12360;BME280;6244;51.460;7.090;2024-01-06T11:08:45;99973.47;;;4.06;100.00
12360;BME280;6244;51.460;7.090;2024-01-06T11:13:46;99966.25;;;3.91;100.00
12360;BME280;6244;51.460;7.090;2024-01-06T11:18:43;99965.34;;;3.92;100.00
12360;BME280;6244;51.460;7.090;2024-01-06T11:23:40;99965.81;;;4.03;100.00
12360;BME280;6244;51.460;7.090;2024-01-06T11:28:44;99981.22;;;4.07;100.00
12360;BME280;6244;51.460;7.090;2024-01-06T11:33:43;99974.50;;;4.02;100.00
12360;BME280;6244;51.460;7.090;2024-01-06T11:38:42;99975.03;;;4.11;100.00
12360;BME280;6244;51.460;7.090;2024-01-06T11:43:43;99974.38;;;4.05;100.00
12360;BME280;6244;51.460;7.090;2024-01-06T11:48:43;99979.56;;;4.05;100.00
12360;BME280;6244;51.460;7.090;2024-01-06T11:53:46;99974.31;;;4.06;100.00
12360;BME280;6244;51.460;7.090;2024-01-06T11:58:43;99974.03;;;3.91;100.00
12360;BME280;6244;51.460;7.090;2024-01-06T12:03:43;99983.25;;;3.99;100.00
12360;BME280;6244;51.460;7.090;2024-01-06T12:08:40;99980.22;;;3.62;100.00
12360;BME280;6244;51.460;7.090;2024-01-06T12:13:37;99994.47;;;3.75;100.00
12360;BME280;6244;51.460;7.090;2024-01-06T12:18:33;99998.03;;;3.71;100.00
12360;BME280;6244;51.460;7.090;2024-01-06T12:23:31;99994.19;;;3.82;100.00
12360;BME280;6244;51.460;7.090;2024-01-06T12:28:28;99994.28;;;3.54;100.00
12360;BME280;6244;51.460;7.090;2024-01-06T12:33:24;99998.66;;;3.52;100.00
12360;BME280;6244;51.460;7.090;2024-01-06T12:38:21;100001.28;;;3.77;100.00
12360;BME280;6244;51.460;7.090;2024-01-06T12:43:19;100001.34;;;3.76;100.00
12360;BME280;6244;51.460;7.090;2024-01-06T12:48:18;100010.59;;;3.85;100.00
12360;BME280;6244;51.460;7.090;2024-01-06T12:53:15;100012.41;;;3.81;100.00
12360;BME280;6244;51.460;7.090;2024-01-06T12:58:12;100011.13;;;3.68;100.00
12360;BME280;6244;51.460;7.090;2024-01-06T13:03:10;100003.34;;;3.41;100.00
12360;BME280;6244;51.460;7.090;2024-01-06T13:08:08;100017.84;;;3.48;100.00
12360;BME280;6244;51.460;7.090;2024-01-06T13:13:05;100016.13;;;3.47;100.00
12360;BME280;6244;51.460;7.090;2024-01-06T13:18:01;100017.31;;;3.37;100.00
12360;BME280;6244;51.460;7.090;2024-01-06T13:22:59;100028.38;;;3.42;100.00
12360;BME280;6244;51.460;7.090;2024-01-06T13:27:56;100027.44;;;3.45;100.00
12360;BME280;6244;51.460;7.090;2024-01-06T13:32:53;100041.97;;;3.50;100.00
12360;BME280;6244;51.460;7.090;2024-01-06T13:37:49;100046.59;;;3.41;100.00
12360;BME280;6244;51.460;7.090;2024-01-06T13:42:48;100055.59;;;3.29;100.00
12360;BME280;6244;51.460;7.090;2024-01-06T13:47:45;100057.28;;;3.30;100.00
12360;BME280;6244;51.460;7.090;2024-01-06T13:52:42;100050.38;;;3.31;100.00
12360;BME280;6244;51.460;7.090;2024-01-06T13:57:39;100059.09;;;3.28;100.00
12360;BME280;6244;51.460;7.090;2024-01-06T14:02:38;100063.09;;;3.38;100.00
12360;BME280;6244;51.460;7.090;2024-01-06T14:07:34;100061.41;;;3.37;100.00
12360;BME280;6244;51.460;7.090;2024-01-06T14:12:33;100082.38;;;3.30;100.00
12360;BME280;6244;51.460;7.090;2024-01-06T14:17:30;100084.03;;;3.32;100.00
12360;BME280;6244;51.460;7.090;2024-01-06T14:22:28;100090.94;;;3.32;100.00
12360;BME280;6244;51.460;7.090;2024-01-06T14:27:25;100097.13;;;3.28;100.00
12360;BME280;6244;51.460;7.090;2024-01-06T14:32:24;100106.56;;;3.30;100.00
12360;BME280;6244;51.460;7.090;2024-01-06T14:37:20;100115.44;;;3.23;100.00
12360;BME280;6244;51.460;7.090;2024-01-06T14:42:19;100119.47;;;3.32;100.00
12360;BME280;6244;51.460;7.090;2024-01-06T14:47:15;100117.72;;;3.32;100.00
12360;BME280;6244;51.460;7.090;2024-01-06T14:52:12;100131.34;;;3.11;100.00
12360;BME280;6244;51.460;7.090;2024-01-06T14:57:08;100143.06;;;3.24;100.00
12360;BME280;6244;51.460;7.090;2024-01-06T15:02:06;100138.94;;;3.17;100.00
12360;BME280;6244;51.460;7.090;2024-01-06T15:07:03;100153.34;;;3.27;100.00
12360;BME280;6244;51.460;7.090;2024-01-06T15:12:00;100156.72;;;3.29;100.00
12360;BME280;6244;51.460;7.090;2024-01-06T15:16:56;100165.44;;;3.27;100.00
12360;BME280;6244;51.460;7.090;2024-01-06T15:21:55;100182.06;;;3.19;100.00
12360;BME280;6244;51.460;7.090;2024-01-06T15:26:51;100166.84;;;3.07;100.00
12360;BME280;6244;51.460;7.090;2024-01-06T15:31:48;100191.22;;;3.02;100.00
12360;BME280;6244;51.460;7.090;2024-01-06T15:36:46;100194.56;;;3.05;100.00
12360;BME280;6244;51.460;7.090;2024-01-06T15:41:44;100204.00;;;3.08;100.00
12360;BME280;6244;51.460;7.090;2024-01-06T15:46:41;100204.25;;;2.99;100.00
12360;BME280;6244;51.460;7.090;2024-01-06T15:51:38;100220.22;;;3.14;100.00
12360;BME280;6244;51.460;7.090;2024-01-06T15:56:35;100208.41;;;3.04;100.00
12360;BME280;6244;51.460;7.090;2024-01-06T16:01:33;100230.50;;;3.17;100.00
12360;BME280;6244;51.460;7.090;2024-01-06T16:06:30;100231.38;;;3.18;100.00
12360;BME280;6244;51.460;7.090;2024-01-06T16:11:27;100233.81;;;3.24;100.00
12360;BME280;6244;51.460;7.090;2024-01-06T16:16:27;100235.78;;;3.14;100.00
12360;BME280;6244;51.460;7.090;2024-01-06T16:21:26;100236.78;;;3.10;100.00
12360;BME280;6244;51.460;7.090;2024-01-06T16:26:24;100251.34;;;3.14;100.00
12360;BME280;6244;51.460;7.090;2024-01-06T16:31:20;100251.53;;;3.07;100.00
12360;BME280;6244;51.460;7.090;2024-01-06T16:36:17;100257.63;;;3.06;100.00
12360;BME280;6244;51.460;7.090;2024-01-06T16:41:15;100268.06;;;3.03;100.00
12360;BME280;6244;51.460;7.090;2024-01-06T16:46:11;100265.72;;;3.26;100.00
12360;BME280;6244;51.460;7.090;2024-01-06T16:51:08;100271.53;;;3.34;100.00
12360;BME280;6244;51.460;7.090;2024-01-06T16:56:05;100258.97;;;3.19;100.00
12360;BME280;6244;51.460;7.090;2024-01-06T17:01:03;100264.91;;;3.24;100.00
12360;BME280;6244;51.460;7.090;2024-01-06T17:06:00;100271.56;;;3.33;100.00
12360;BME280;6244;51.460;7.090;2024-01-06T17:10:57;100276.81;;;3.31;100.00
12360;BME280;6244;51.460;7.090;2024-01-06T17:15:54;100281.19;;;3.29;100.00
12360;BME280;6244;51.460;7.090;2024-01-06T17:20:52;100285.00;;;3.16;100.00
12360;BME280;6244;51.460;7.090;2024-01-06T17:25:48;100280.63;;;3.18;100.00
12360;BME280;6244;51.460;7.090;2024-01-06T17:30:45;100283.91;;;3.24;100.00
12360;BME280;6244;51.460;7.090;2024-01-06T17:35:42;100291.78;;;3.20;100.00
12360;BME280;6244;51.460;7.090;2024-01-06T17:40:41;100285.66;;;3.24;100.00
12360;BME280;6244;51.460;7.090;2024-01-06T17:45:42;100279.63;;;3.22;100.00
12360;BME280;6244;51.460;7.090;2024-01-06T17:50:39;100273.75;;;3.17;100.00
12360;BME280;6244;51.460;7.090;2024-01-06T17:55:40;100297.84;;;3.20;100.00
12360;BME280;6244;51.460;7.090;2024-01-06T18:00:40;100287.50;;;3.19;100.00
12360;BME280;6244;51.460;7.090;2024-01-06T18:05:37;100305.56;;;3.22;100.00
12360;BME280;6244;51.460;7.090;2024-01-06T18:10:34;100316.06;;;3.17;100.00
12360;BME280;6244;51.460;7.090;2024-01-06T18:15:32;100320.50;;;3.14;100.00
12360;BME280;6244;51.460;7.090;2024-01-06T18:20:28;100321.44;;;3.10;100.00
12360;BME280;6244;51.460;7.090;2024-01-06T18:25:25;100323.03;;;3.15;100.00
12360;BME280;6244;51.460;7.090;2024-01-06T18:30:22;100322.84;;;3.23;100.00
12360;BME280;6244;51.460;7.090;2024-01-06T18:35:19;100333.13;;;3.26;100.00
12360;BME280;6244;51.460;7.090;2024-01-06T18:40:16;100326.53;;;3.14;100.00
12360;BME280;6244;51.460;7.090;2024-01-06T18:45:13;100328.72;;;3.30;100.00
12360;BME280;6244;51.460;7.090;2024-01-06T18:50:10;100341.66;;;3.30;100.00
12360;BME280;6244;51.460;7.090;2024-01-06T18:55:08;100345.53;;;3.15;100.00
12360;BME280;6244;51.460;7.090;2024-01-06T19:00:06;100335.28;;;3.09;100.00
12360;BME280;6244;51.460;7.090;2024-01-06T19:05:03;100362.59;;;3.22;100.00
12360;BME280;6244;51.460;7.090;2024-01-06T19:10:02;100360.81;;;3.26;100.00
12360;BME280;6244;51.460;7.090;2024-01-06T19:15:00;100373.69;;;3.29;100.00
12360;BME280;6244;51.460;7.090;2024-01-06T19:19:57;100380.78;;;3.20;100.00
12360;BME280;6244;51.460;7.090;2024-01-06T19:24:53;100391.13;;;3.22;100.00
12360;BME280;6244;51.460;7.090;2024-01-06T19:29:50;100393.94;;;3.14;100.00
12360;BME280;6244;51.460;7.090;2024-01-06T19:34:49;100395.00;;;3.06;100.00
12360;BME280;6244;51.460;7.090;2024-01-06T19:39:49;100394.94;;;3.07;100.00
12360;BME280;6244;51.460;7.090;2024-01-06T19:44:45;100398.72;;;2.94;100.00
12360;BME280;6244;51.460;7.090;2024-01-06T19:49:42;100408.34;;;2.90;100.00
12360;BME280;6244;51.460;7.090;2024-01-06T19:54:40;100401.28;;;2.95;100.00
12360;BME280;6244;51.460;7.090;2024-01-06T19:59:36;100407.34;;;2.94;100.00
12360;BME280;6244;51.460;7.090;2024-01-06T20:04:33;100408.34;;;2.90;100.00
12360;BME280;6244;51.460;7.090;2024-01-06T20:09:29;100406.94;;;2.76;100.00
12360;BME280;6244;51.460;7.090;2024-01-06T20:14:27;100412.91;;;2.79;100.00
12360;BME280;6244;51.460;7.090;2024-01-06T20:19:24;100418.81;;;2.86;100.00
12360;BME280;6244;51.460;7.090;2024-01-06T20:24:21;100418.78;;;2.87;100.00
12360;BME280;6244;51.460;7.090;2024-01-06T20:29:18;100417.06;;;2.86;100.00
12360;BME280;6244;51.460;7.090;2024-01-06T20:34:18;100422.22;;;2.88;100.00
12360;BME280;6244;51.460;7.090;2024-01-06T20:39:15;100427.31;;;2.91;100.00
12360;BME280;6244;51.460;7.090;2024-01-06T20:44:12;100426.44;;;2.92;100.00
12360;BME280;6244;51.460;7.090;2024-01-06T20:49:08;100425.41;;;2.98;100.00
12360;BME280;6244;51.460;7.090;2024-01-06T20:54:10;100436.03;;;2.88;100.00
12360;BME280;6244;51.460;7.090;2024-01-06T20:59:07;100436.75;;;2.93;100.00
12360;BME280;6244;51.460;7.090;2024-01-06T21:04:03;100429.78;;;2.95;100.00
12360;BME280;6244;51.460;7.090;2024-01-06T21:09:00;100441.09;;;2.93;100.00
12360;BME280;6244;51.460;7.090;2024-01-06T21:13:58;100439.56;;;2.84;100.00
12360;BME280;6244;51.460;7.090;2024-01-06T21:18:54;100443.03;;;2.83;100.00
12360;BME280;6244;51.460;7.090;2024-01-06T21:23:51;100442.09;;;2.87;100.00
12360;BME280;6244;51.460;7.090;2024-01-06T21:28:47;100457.00;;;2.78;100.00
12360;BME280;6244;51.460;7.090;2024-01-06T21:33:45;100455.28;;;2.77;100.00
12360;BME280;6244;51.460;7.090;2024-01-06T21:38:42;100461.41;;;2.74;100.00
12360;BME280;6244;51.460;7.090;2024-01-06T21:53:51;100465.72;;;2.74;100.00
12360;BME280;6244;51.460;7.090;2024-01-06T21:58:48;100464.00;;;2.74;100.00
12360;BME280;6244;51.460;7.090;2024-01-06T22:03:44;100475.31;;;2.69;100.00
12360;BME280;6244;51.460;7.090;2024-01-06T22:08:42;100458.97;;;2.67;100.00
12360;BME280;6244;51.460;7.090;2024-01-06T22:13:43;100455.59;;;2.63;100.00
12360;BME280;6244;51.460;7.090;2024-01-06T22:18:41;100471.91;;;2.67;100.00
12360;BME280;6244;51.460;7.090;2024-01-06T22:23:37;100471.97;;;2.65;100.00
12360;BME280;6244;51.460;7.090;2024-01-06T22:28:34;100477.25;;;2.60;100.00
12360;BME280;6244;51.460;7.090;2024-01-06T22:33:34;100469.44;;;2.62;100.00
12360;BME280;6244;51.460;7.090;2024-01-06T22:38:33;100479.84;;;2.60;100.00
12360;BME280;6244;51.460;7.090;2024-01-06T22:43:31;100480.72;;;2.58;100.00
12360;BME280;6244;51.460;7.090;2024-01-06T22:48:27;100480.06;;;2.50;100.00
12360;BME280;6244;51.460;7.090;2024-01-06T22:53:26;100494.59;;;2.55;100.00
12360;BME280;6244;51.460;7.090;2024-01-06T22:58:23;100493.63;;;2.59;100.00
12360;BME280;6244;51.460;7.090;2024-01-06T23:03:24;100489.28;;;2.63;100.00
12360;BME280;6244;51.460;7.090;2024-01-06T23:08:21;100493.59;;;2.62;100.00
12360;BME280;6244;51.460;7.090;2024-01-06T23:13:20;100493.84;;;2.50;100.00
12360;BME280;6244;51.460;7.090;2024-01-06T23:18:22;100497.47;;;2.42;100.00
12360;BME280;6244;51.460;7.090;2024-01-06T23:23:22;100505.94;;;2.50;100.00
12360;BME280;6244;51.460;7.090;2024-01-06T23:28:23;100514.47;;;2.55;100.00
12360;BME280;6244;51.460;7.090;2024-01-06T23:33:28;100514.41;;;2.58;100.00
12360;BME280;6244;51.460;7.090;2024-01-06T23:38:27;100498.97;;;2.53;100.00
12360;BME280;6244;51.460;7.090;2024-01-06T23:43:25;100524.81;;;2.55;100.00
12360;BME280;6244;51.460;7.090;2024-01-06T23:48:24;100536.00;;;2.57;100.00
12360;BME280;6244;51.460;7.090;2024-01-06T23:53:20;100521.75;;;2.38;100.00
12360;BME280;6244;51.460;7.090;2024-01-06T23:58:17;100543.94;;;2.49;100.00
